EETN/TLL METAR and TAF weather

Enter ICAO airport designator
Station Type Date Time Source
EETN METAR 2022/12/04 11:20 UTC NOAA

EETN 041120Z 10005KT 8000 OVC010 M04/M05 Q1033 NOSIG


Station Type Date Time Source
EETN Decoded METAR 2022/12/04 11:20 UTC NOAA

Tallinn, Estonia (EETN) 59-24N 024-49E 34M
Dec 04, 2022 - 06:20 AM EST / 2022.12.04 1120 UTC
Wind: from the E (100 degrees) at 6 MPH (5 KT):0
Visibility: 4 mile(s):0
Sky conditions: overcast
Temperature: 24 F (-4 C)
Windchill: 17 F (-8 C):1
Dew Point: 23 F (-5 C)
Relative Humidity: 92%
Pressure (altimeter): 30.50 in. Hg (1033 hPa)
ob: EETN 041120Z 10005KT 8000 OVC010 M04/M05 Q1033 NOSIG
cycle: 11

Station Type Date Time Source
EETN TAF 2022/12/04 12:36 UTC NOAA

TAF TAF EETN 041130Z 0412/0512 VRB02KT 8000 OVC010
TEMPO 0412/0418 2000 SN BR OVC005 PROB40
TEMPO 0412/0418 -FZDZ PROB40
TEMPO 0418/0509 3000 BR OVC005

Example: see airport list